createdAt,value
2018-06-12T00:00:36.405Z,0
2018-06-12T00:01:35.901Z,0
2018-06-12T00:02:36.404Z,0
2018-06-12T00:03:36.694Z,0
2018-06-12T00:04:36.670Z,0
2018-06-12T00:05:36.441Z,0
2018-06-12T00:06:36.443Z,0
2018-06-12T00:07:36.433Z,0
2018-06-12T00:08:36.431Z,0
2018-06-12T00:09:35.901Z,0
2018-06-12T00:10:36.432Z,0
2018-06-12T00:11:36.749Z,0
2018-06-12T00:12:36.434Z,0
2018-06-12T00:13:36.676Z,0
2018-06-12T00:14:36.175Z,0
2018-06-12T00:15:36.431Z,0
2018-06-12T00:16:36.533Z,0
2018-06-12T00:17:36.665Z,0
2018-06-12T00:18:36.693Z,0
2018-06-12T00:19:36.443Z,0
2018-06-12T00:20:36.693Z,0
2018-06-12T00:21:36.488Z,0
2018-06-12T00:22:36.419Z,0
2018-06-12T00:23:36.161Z,0
2018-06-12T00:24:36.449Z,0
2018-06-12T00:25:36.695Z,0
2018-06-12T00:26:36.294Z,0
2018-06-12T00:27:36.182Z,0
2018-06-12T00:28:36.455Z,0
2018-06-12T00:29:36.450Z,0
2018-06-12T00:30:36.469Z,0
2018-06-12T00:31:36.526Z,0
2018-06-12T00:32:36.439Z,0
2018-06-12T00:33:36.441Z,0
2018-06-12T00:34:36.449Z,0
2018-06-12T00:35:36.451Z,0
2018-06-12T00:36:36.705Z,0
2018-06-12T00:37:36.450Z,0
2018-06-12T00:38:36.454Z,0
2018-06-12T00:39:36.709Z,0
2018-06-12T00:40:36.702Z,0
2018-06-12T00:41:37.474Z,0
2018-06-12T00:42:36.444Z,0
2018-06-12T00:43:36.711Z,0
2018-06-12T00:44:36.460Z,0
2018-06-12T00:45:36.202Z,0
2018-06-12T00:46:36.503Z,0
2018-06-12T00:47:36.751Z,0
2018-06-12T00:48:36.212Z,0
2018-06-12T00:49:36.196Z,0
2018-06-12T00:50:36.463Z,0
2018-06-12T00:51:36.218Z,0
2018-06-12T00:52:36.488Z,0
2018-06-12T00:53:36.747Z,0
2018-06-12T00:54:36.229Z,0
2018-06-12T00:55:36.726Z,0
2018-06-12T00:56:36.769Z,0
2018-06-12T00:57:36.221Z,0
2018-06-12T00:58:36.745Z,0
2018-06-12T00:59:36.750Z,0
2018-06-12T01:00:36.489Z,0
2018-06-12T01:01:36.792Z,0
2018-06-12T01:02:36.756Z,0
2018-06-12T01:03:36.244Z,0
2018-06-12T01:04:36.243Z,0
2018-06-12T01:05:36.234Z,0
2018-06-12T01:06:35.973Z,0
2018-06-12T01:07:36.771Z,0
2018-06-12T01:08:36.785Z,0
2018-06-12T01:09:36.356Z,0
2018-06-12T01:10:36.521Z,0
2018-06-12T01:11:36.569Z,0
2018-06-12T01:12:36.812Z,0
2018-06-12T01:13:36.266Z,0
2018-06-12T01:14:36.531Z,0
2018-06-12T01:15:36.554Z,0
2018-06-12T01:16:36.856Z,0
2018-06-12T01:17:35.998Z,0
2018-06-12T01:18:36.004Z,0
2018-06-12T01:19:36.510Z,0
2018-06-12T01:20:36.528Z,0
2018-06-12T01:21:36.779Z,0
2018-06-12T01:22:36.534Z,0
2018-06-12T01:23:36.566Z,0
2018-06-12T01:24:36.265Z,0
2018-06-12T01:25:36.852Z,0
2018-06-12T01:26:36.269Z,0
2018-06-12T01:27:36.797Z,0
2018-06-12T01:28:36.530Z,0
2018-06-12T01:29:36.277Z,0
2018-06-12T01:30:36.787Z,0
2018-06-12T01:31:36.610Z,0
2018-06-12T01:32:36.333Z,0
2018-06-12T01:33:36.548Z,0
2018-06-12T01:34:36.800Z,0
2018-06-12T01:35:36.822Z,0
2018-06-12T01:36:36.555Z,0
2018-06-12T01:37:36.564Z,0
2018-06-12T01:38:36.813Z,0
2018-06-12T01:39:36.291Z,0
2018-06-12T01:40:36.837Z,0
2018-06-12T01:41:36.884Z,0
2018-06-12T01:42:36.328Z,0
2018-06-12T01:43:36.317Z,0
2018-06-12T01:44:36.832Z,0
2018-06-12T01:45:36.607Z,0
2018-06-12T01:46:36.387Z,0
2018-06-12T01:47:36.576Z,0
2018-06-12T01:48:36.571Z,0
2018-06-12T01:49:36.581Z,0
2018-06-12T01:50:36.310Z,0
2018-06-12T01:51:36.706Z,0
2018-06-12T01:52:36.093Z,0
2018-06-12T01:53:36.576Z,0
2018-06-12T01:54:36.868Z,0
2018-06-12T01:55:36.590Z,0
2018-06-12T01:56:36.940Z,0
2018-06-12T01:57:36.909Z,0
2018-06-12T01:58:36.862Z,0
2018-06-12T01:59:36.629Z,0
2018-06-12T02:00:36.599Z,0
2018-06-12T02:01:36.199Z,0
2018-06-12T02:02:36.616Z,0
2018-06-12T02:03:36.096Z,0
2018-06-12T02:04:36.626Z,0
2018-06-12T02:05:36.617Z,0
2018-06-12T02:06:36.356Z,0
2018-06-12T02:07:36.883Z,0
2018-06-12T02:08:36.626Z,0
2018-06-12T02:09:36.615Z,0
2018-06-12T02:10:36.375Z,0
2018-06-12T02:11:36.107Z,0
2018-06-12T02:12:37.384Z,0
2018-06-12T02:13:36.632Z,0
2018-06-12T02:14:36.111Z,0
2018-06-12T02:15:36.616Z,0
2018-06-12T02:16:36.715Z,0
2018-06-12T02:17:36.377Z,0
2018-06-12T02:18:36.390Z,0
2018-06-12T02:19:36.114Z,0
2018-06-12T02:20:36.640Z,0
2018-06-12T02:21:36.132Z,0
2018-06-12T02:22:36.380Z,0
2018-06-12T02:23:36.386Z,0
2018-06-12T02:24:36.634Z,0
2018-06-12T02:25:36.379Z,0
2018-06-12T02:26:36.940Z,0
2018-06-12T02:27:36.644Z,0
2018-06-12T02:28:36.652Z,0
2018-06-12T02:29:36.654Z,0
2018-06-12T02:30:36.670Z,0
2018-06-12T02:31:36.674Z,0
2018-06-12T02:32:36.935Z,0
2018-06-12T02:33:36.472Z,0
2018-06-12T02:34:36.398Z,0
2018-06-12T02:35:36.646Z,0
2018-06-12T02:36:36.761Z,0
2018-06-12T02:37:36.686Z,0
2018-06-12T02:38:36.691Z,0
2018-06-12T02:39:36.934Z,0
2018-06-12T02:40:42.596Z,0
2018-06-12T02:41:36.976Z,0
2018-06-12T02:42:37.311Z,0
2018-06-12T02:43:36.451Z,0
2018-06-12T02:44:36.597Z,0
2018-06-12T02:45:36.692Z,0
2018-06-12T02:46:36.732Z,0
2018-06-12T02:47:36.432Z,0
2018-06-12T02:48:36.478Z,0
2018-06-12T02:49:36.702Z,0
2018-06-12T02:50:36.735Z,0
2018-06-12T02:51:36.764Z,0
2018-06-12T02:52:36.697Z,0
2018-06-12T02:53:37.037Z,0
2018-06-12T02:54:36.459Z,0
2018-06-12T02:55:36.732Z,0
2018-06-12T02:56:36.536Z,0
2018-06-12T02:57:36.979Z,0
2018-06-12T02:58:36.719Z,0
2018-06-12T02:59:36.700Z,0
2018-06-12T03:00:36.787Z,0
2018-06-12T03:01:36.458Z,0
2018-06-12T03:02:36.744Z,0
2018-06-12T03:03:36.988Z,0
2018-06-12T03:04:36.734Z,0
2018-06-12T03:05:36.735Z,0
2018-06-12T03:06:36.980Z,0
2018-06-12T03:07:36.752Z,0
2018-06-12T03:08:36.527Z,0
2018-06-12T03:09:36.481Z,0
2018-06-12T03:10:36.719Z,0
2018-06-12T03:11:36.493Z,0
2018-06-12T03:12:38.644Z,0
2018-06-12T03:13:36.492Z,0
2018-06-12T03:14:36.503Z,0
2018-06-12T03:15:36.755Z,0
2018-06-12T03:16:36.481Z,0
2018-06-12T03:17:36.755Z,0
2018-06-12T03:18:37.083Z,0
2018-06-12T03:19:36.540Z,0
2018-06-12T03:20:37.011Z,0
2018-06-12T03:21:36.822Z,0
2018-06-12T03:22:36.754Z,0
2018-06-12T03:23:37.052Z,0
2018-06-12T03:24:36.751Z,5
2018-06-12T03:25:36.745Z,5
2018-06-12T03:26:37.103Z,5
2018-06-12T03:27:37.030Z,5
2018-06-12T03:28:36.507Z,5
2018-06-12T03:29:36.793Z,5
2018-06-12T03:30:37.127Z,5
2018-06-12T03:31:36.896Z,5
2018-06-12T03:32:36.507Z,5
2018-06-12T03:33:36.536Z,5
2018-06-12T03:34:36.785Z,5
2018-06-12T03:35:36.274Z,5
2018-06-12T03:36:37.058Z,5
2018-06-12T03:37:36.536Z,5
2018-06-12T03:38:37.065Z,10
2018-06-12T03:39:36.772Z,10
2018-06-12T03:40:36.542Z,10
2018-06-12T03:41:36.569Z,10
2018-06-12T03:42:39.777Z,10
2018-06-12T03:43:36.793Z,10
2018-06-12T03:44:37.063Z,10
2018-06-12T03:45:37.089Z,15
2018-06-12T03:46:36.834Z,15
2018-06-12T03:47:36.562Z,15
2018-06-12T03:48:36.821Z,15
2018-06-12T03:49:36.801Z,20
2018-06-12T03:50:36.805Z,20
2018-06-12T03:51:37.167Z,20
2018-06-12T03:52:36.562Z,25
2018-06-12T03:53:36.804Z,25
2018-06-12T03:54:36.544Z,25
2018-06-12T03:55:36.552Z,25
2018-06-12T03:56:36.867Z,25
2018-06-12T03:57:36.680Z,25
2018-06-12T03:58:36.609Z,25
2018-06-12T03:59:36.572Z,25
2018-06-12T04:00:36.564Z,25
2018-06-12T04:01:36.658Z,25
2018-06-12T04:02:36.814Z,25
2018-06-12T04:03:36.840Z,25
2018-06-12T04:04:36.827Z,25
2018-06-12T04:05:37.110Z,25
2018-06-12T04:06:36.584Z,25
2018-06-12T04:07:36.627Z,25
2018-06-12T04:08:36.863Z,25
2018-06-12T04:09:36.068Z,25
2018-06-12T04:10:36.869Z,25
2018-06-12T04:11:36.859Z,30
2018-06-12T04:12:36.838Z,30
2018-06-12T04:13:36.352Z,30
2018-06-12T04:14:36.582Z,30
2018-06-12T04:15:36.842Z,30
2018-06-12T04:16:36.664Z,30
2018-06-12T04:17:36.856Z,30
2018-06-12T04:18:36.597Z,30
2018-06-12T04:19:36.594Z,30
2018-06-12T04:20:36.456Z,30
2018-06-12T04:21:36.601Z,35
2018-06-12T04:22:36.338Z,35
2018-06-12T04:23:36.910Z,40
2018-06-12T04:24:36.608Z,45
2018-06-12T04:25:36.862Z,45
2018-06-12T04:26:36.865Z,50
2018-06-12T04:27:37.144Z,50
2018-06-12T04:28:37.220Z,50
2018-06-12T04:29:36.617Z,55
2018-06-12T04:30:36.915Z,55
2018-06-12T04:31:36.388Z,55
2018-06-12T04:32:36.905Z,55
2018-06-12T04:33:36.645Z,55
2018-06-12T04:34:36.359Z,55
2018-06-12T04:35:36.886Z,55
2018-06-12T04:36:36.619Z,50
2018-06-12T04:37:36.632Z,55
2018-06-12T04:38:36.901Z,55
2018-06-12T04:39:36.898Z,55
2018-06-12T04:40:36.929Z,55
2018-06-12T04:41:36.190Z,55
2018-06-12T04:42:36.651Z,60
2018-06-12T04:43:37.693Z,60
2018-06-12T04:44:37.200Z,70
2018-06-12T04:45:36.921Z,75
2018-06-12T04:46:36.930Z,85
2018-06-12T04:47:36.902Z,120
2018-06-12T04:48:37.200Z,205
2018-06-12T04:49:36.402Z,215
2018-06-12T04:50:36.654Z,250
2018-06-12T04:51:36.765Z,265
2018-06-12T04:52:36.923Z,175
2018-06-12T04:53:37.201Z,155
2018-06-12T04:54:36.715Z,160
2018-06-12T04:55:36.940Z,170
2018-06-12T04:56:36.414Z,180
2018-06-12T04:57:36.400Z,185
2018-06-12T04:58:36.959Z,205
2018-06-12T04:59:36.944Z,210
2018-06-12T05:00:36.676Z,235
2018-06-12T05:01:36.431Z,225
2018-06-12T05:02:36.938Z,265
2018-06-12T05:03:36.442Z,200
2018-06-12T05:04:37.243Z,150
2018-06-12T05:05:36.962Z,145
2018-06-12T05:06:36.983Z,140
2018-06-12T05:07:36.692Z,140
2018-06-12T05:08:37.010Z,135
2018-06-12T05:09:36.719Z,135
2018-06-12T05:10:37.470Z,135
2018-06-12T05:11:36.789Z,130
2018-06-12T05:12:37.009Z,130
2018-06-12T05:13:36.473Z,130
2018-06-12T05:14:36.725Z,135
2018-06-12T05:15:36.750Z,150
2018-06-12T05:16:36.765Z,155
2018-06-12T05:17:36.758Z,140
2018-06-12T05:18:37.050Z,130
2018-06-12T05:19:37.391Z,130
2018-06-12T05:20:37.029Z,125
2018-06-12T05:21:37.048Z,125
2018-06-12T05:22:36.744Z,125
2018-06-12T05:23:36.498Z,130
2018-06-12T05:24:36.239Z,135
2018-06-12T05:25:37.535Z,135
2018-06-12T05:26:37.321Z,140
2018-06-12T05:27:36.777Z,150
2018-06-12T05:28:36.784Z,155
2018-06-12T05:29:36.537Z,160
2018-06-12T05:30:37.080Z,175
2018-06-12T05:31:37.130Z,175
2018-06-12T05:32:36.538Z,175
2018-06-12T05:33:36.547Z,175
2018-06-12T05:34:37.084Z,175
2018-06-12T05:35:37.112Z,175
2018-06-12T05:36:36.550Z,175
2018-06-12T05:37:37.103Z,170
2018-06-12T05:38:37.095Z,165
2018-06-12T05:39:36.568Z,165
2018-06-12T05:40:37.346Z,165
2018-06-12T05:41:37.141Z,170
2018-06-12T05:42:36.822Z,170
2018-06-12T05:43:37.351Z,170
2018-06-12T05:44:36.884Z,170
2018-06-12T05:45:36.858Z,170
2018-06-12T05:46:37.113Z,165
2018-06-12T05:47:37.128Z,165
2018-06-12T05:48:36.883Z,160
2018-06-12T05:49:36.847Z,155
2018-06-12T05:50:37.128Z,155
2018-06-12T05:51:37.519Z,140
2018-06-12T05:52:36.592Z,140
2018-06-12T05:53:37.138Z,140
2018-06-12T05:54:36.610Z,135
2018-06-12T05:55:36.864Z,140
2018-06-12T05:56:37.236Z,150
2018-06-12T05:57:37.403Z,145
2018-06-12T05:58:37.175Z,140
2018-06-12T05:59:36.900Z,140
2018-06-12T06:00:37.434Z,140
2018-06-12T06:01:36.939Z,140
2018-06-12T06:02:37.165Z,145
2018-06-12T06:03:37.179Z,150
2018-06-12T06:04:36.902Z,150
2018-06-12T06:05:36.904Z,150
2018-06-12T06:06:37.417Z,155
2018-06-12T06:07:37.159Z,160
2018-06-12T06:08:37.173Z,170
2018-06-12T06:09:36.923Z,180
2018-06-12T06:10:37.617Z,200
2018-06-12T06:11:37.017Z,215
2018-06-12T06:12:36.922Z,220
2018-06-12T06:13:36.968Z,225
2018-06-12T06:14:37.000Z,240
2018-06-12T06:15:37.210Z,250
2018-06-12T06:16:37.214Z,255
2018-06-12T06:17:36.957Z,240
2018-06-12T06:18:37.485Z,230
2018-06-12T06:19:37.489Z,235
2018-06-12T06:20:37.240Z,240
2018-06-12T06:21:37.346Z,235
2018-06-12T06:22:37.798Z,225
2018-06-12T06:23:37.248Z,235
2018-06-12T06:24:37.241Z,230
2018-06-12T06:25:37.246Z,215
2018-06-12T06:26:37.348Z,205
2018-06-12T06:27:37.257Z,205
2018-06-12T06:28:36.989Z,200
2018-06-12T06:29:37.132Z,195
2018-06-12T06:30:37.257Z,185
2018-06-12T06:31:37.262Z,175
2018-06-12T06:32:37.011Z,170
2018-06-12T06:33:37.285Z,155
2018-06-12T06:34:37.300Z,150
2018-06-12T06:35:37.559Z,140
2018-06-12T06:36:37.561Z,145
2018-06-12T06:37:37.561Z,145
2018-06-12T06:38:37.313Z,145
2018-06-12T06:39:37.549Z,150
2018-06-12T06:40:37.541Z,150
2018-06-12T06:41:37.393Z,155
2018-06-12T06:42:37.332Z,155
2018-06-12T06:43:38.609Z,165
2018-06-12T06:44:37.033Z,170
2018-06-12T06:45:37.044Z,175
2018-06-12T06:46:37.577Z,175
2018-06-12T06:47:37.342Z,170
2018-06-12T06:48:37.590Z,160
2018-06-12T06:49:37.329Z,155
2018-06-12T06:50:37.336Z,150
2018-06-12T06:51:37.347Z,155
2018-06-12T06:52:37.063Z,155
2018-06-12T06:53:37.776Z,155
2018-06-12T06:54:37.343Z,170
2018-06-12T06:55:37.091Z,190
2018-06-12T06:56:37.325Z,200
2018-06-12T06:57:36.810Z,205
2018-06-12T06:58:37.101Z,210
2018-06-12T06:59:37.637Z,210
2018-06-12T07:00:37.615Z,210
2018-06-12T07:01:37.130Z,205
2018-06-12T07:02:37.369Z,205
2018-06-12T07:03:37.158Z,195
2018-06-12T07:04:37.616Z,195
2018-06-12T07:05:37.635Z,190
2018-06-12T07:06:37.383Z,190
2018-06-12T07:07:37.400Z,185
2018-06-12T07:08:38.190Z,185
2018-06-12T07:09:37.675Z,180
2018-06-12T07:10:37.382Z,175
2018-06-12T07:11:37.696Z,170
2018-06-12T07:12:37.138Z,160
2018-06-12T07:13:37.405Z,155
2018-06-12T07:14:38.707Z,145
2018-06-12T07:15:37.402Z,140
2018-06-12T07:16:37.673Z,140
2018-06-12T07:17:37.184Z,140
2018-06-12T07:18:37.658Z,140
2018-06-12T07:19:37.158Z,140
2018-06-12T07:20:37.669Z,135
2018-06-12T07:21:37.675Z,135
2018-06-12T07:22:37.416Z,135
2018-06-12T07:23:37.169Z,135
2018-06-12T07:24:37.423Z,140
2018-06-12T07:25:37.175Z,145
2018-06-12T07:26:37.471Z,145
2018-06-12T07:27:37.703Z,150
2018-06-12T07:28:37.454Z,155
2018-06-12T07:29:37.464Z,160
2018-06-12T07:30:37.446Z,165
2018-06-12T07:31:37.217Z,170
2018-06-12T07:32:37.209Z,175
2018-06-12T07:33:37.234Z,180
2018-06-12T07:34:37.728Z,180
2018-06-12T07:35:37.232Z,185
2018-06-12T07:36:37.475Z,190
2018-06-12T07:37:37.990Z,190
2018-06-12T07:38:37.224Z,190
2018-06-12T07:39:37.272Z,190
2018-06-12T07:40:37.797Z,195
2018-06-12T07:41:37.540Z,210
2018-06-12T07:42:37.747Z,225
2018-06-12T07:43:38.081Z,235
2018-06-12T07:44:38.579Z,245
2018-06-12T07:45:38.173Z,260
2018-06-12T07:46:37.527Z,280
2018-06-12T07:47:37.532Z,290
2018-06-12T07:48:37.274Z,310
2018-06-12T07:49:37.538Z,320
2018-06-12T07:50:37.027Z,315
2018-06-12T07:51:37.277Z,300
2018-06-12T07:52:37.538Z,285
2018-06-12T07:53:37.545Z,275
2018-06-12T07:54:37.545Z,260
2018-06-12T07:55:37.554Z,255
2018-06-12T07:56:37.602Z,240
2018-06-12T07:57:37.566Z,240
2018-06-12T07:58:37.572Z,235
2018-06-12T07:59:37.583Z,230
2018-06-12T08:00:37.347Z,235
2018-06-12T08:01:37.585Z,220
2018-06-12T08:02:37.860Z,210
2018-06-12T08:03:37.851Z,205
2018-06-12T08:04:37.591Z,195
2018-06-12T08:05:37.857Z,190
2018-06-12T08:06:37.651Z,185
2018-06-12T08:07:37.611Z,185
2018-06-12T08:08:37.619Z,175
2018-06-12T08:09:37.608Z,170
2018-06-12T08:10:37.861Z,165
2018-06-12T08:11:37.874Z,165
2018-06-12T08:12:37.611Z,160
2018-06-12T08:13:37.664Z,160
2018-06-12T08:14:37.498Z,160
2018-06-12T08:15:37.438Z,155
2018-06-12T08:16:37.133Z,155
2018-06-12T08:17:37.917Z,160
2018-06-12T08:18:38.133Z,155
2018-06-12T08:19:37.183Z,150
2018-06-12T08:20:37.687Z,145
2018-06-12T08:21:37.912Z,145
2018-06-12T08:22:37.667Z,140
2018-06-12T08:23:37.933Z,140
2018-06-12T08:24:37.151Z,140
2018-06-12T08:25:37.489Z,140
2018-06-12T08:26:37.759Z,140
2018-06-12T08:27:37.701Z,140
2018-06-12T08:28:36.945Z,140
2018-06-12T08:29:37.718Z,140
2018-06-12T08:30:38.082Z,145
2018-06-12T08:31:37.205Z,150
2018-06-12T08:32:37.703Z,150
2018-06-12T08:33:37.735Z,155
2018-06-12T08:34:37.494Z,155
2018-06-12T08:35:38.264Z,155
2018-06-12T08:36:37.454Z,160
2018-06-12T08:37:37.992Z,160
2018-06-12T08:38:37.748Z,165
2018-06-12T08:39:38.001Z,170
2018-06-12T08:40:37.485Z,170
2018-06-12T08:41:37.793Z,175
2018-06-12T08:42:37.759Z,180
2018-06-12T08:43:37.539Z,180
2018-06-12T08:44:37.764Z,180
2018-06-12T08:45:38.020Z,180
2018-06-12T08:46:38.283Z,175
2018-06-12T08:47:37.512Z,170
2018-06-12T08:48:37.549Z,165
2018-06-12T08:49:37.254Z,165
2018-06-12T08:50:37.027Z,165
2018-06-12T08:51:37.765Z,165
2018-06-12T08:52:37.278Z,165
2018-06-12T08:53:37.792Z,170
2018-06-12T08:54:37.283Z,170
2018-06-12T08:55:37.544Z,170
2018-06-12T08:56:37.583Z,170
2018-06-12T08:57:37.577Z,180
2018-06-12T08:58:37.317Z,180
2018-06-12T08:59:38.132Z,185
2018-06-12T09:00:37.883Z,180
2018-06-12T09:01:37.860Z,180
2018-06-12T09:02:37.667Z,185
2018-06-12T09:03:38.147Z,190
2018-06-12T09:04:38.368Z,195
2018-06-12T09:05:37.835Z,200
2018-06-12T09:06:37.830Z,210
2018-06-12T09:07:37.582Z,215
2018-06-12T09:08:37.599Z,220
2018-06-12T09:09:37.093Z,225
2018-06-12T09:10:37.594Z,235
2018-06-12T09:11:38.128Z,245
2018-06-12T09:12:37.860Z,245
2018-06-12T09:13:37.870Z,245
2018-06-12T09:14:38.108Z,245
2018-06-12T09:15:38.671Z,245
2018-06-12T09:16:38.140Z,250
2018-06-12T09:17:37.623Z,255
2018-06-12T09:18:37.627Z,265
2018-06-12T09:19:37.927Z,270
2018-06-12T09:20:38.132Z,275
2018-06-12T09:21:37.629Z,290
2018-06-12T09:22:37.885Z,295
2018-06-12T09:23:37.651Z,300
2018-06-12T09:24:37.898Z,310
2018-06-12T09:25:37.647Z,315
2018-06-12T09:26:37.923Z,320
2018-06-12T09:27:37.909Z,325
2018-06-12T09:28:37.688Z,330
2018-06-12T09:29:37.914Z,335
2018-06-12T09:30:37.658Z,335
2018-06-12T09:31:38.275Z,355
2018-06-12T09:32:37.660Z,410
2018-06-12T09:33:37.444Z,455
2018-06-12T09:34:37.434Z,460
2018-06-12T09:35:37.718Z,450
2018-06-12T09:36:37.968Z,415
2018-06-12T09:37:37.680Z,390
2018-06-12T09:38:37.956Z,380
2018-06-12T09:39:38.182Z,385
2018-06-12T09:40:37.791Z,425
2018-06-12T09:41:37.713Z,365
2018-06-12T09:42:37.713Z,350
2018-06-12T09:43:37.987Z,405
2018-06-12T09:44:37.729Z,360
2018-06-12T09:45:38.253Z,340
2018-06-12T09:46:37.833Z,350
2018-06-12T09:47:37.778Z,435
2018-06-12T09:48:37.738Z,355
2018-06-12T09:49:38.037Z,335
2018-06-12T09:50:38.035Z,320
2018-06-12T09:51:38.121Z,315
2018-06-12T09:52:37.760Z,305
2018-06-12T09:53:38.033Z,305
2018-06-12T09:54:38.036Z,300
2018-06-12T09:55:37.774Z,300
2018-06-12T09:56:37.786Z,305
2018-06-12T09:57:38.087Z,320
2018-06-12T09:58:37.807Z,330
2018-06-12T09:59:38.067Z,345
2018-06-12T10:00:37.829Z,355
2018-06-12T10:01:37.889Z,360
2018-06-12T10:02:37.868Z,350
2018-06-12T10:03:38.102Z,350
2018-06-12T10:04:37.580Z,355
2018-06-12T10:05:38.357Z,365
2018-06-12T10:06:38.164Z,475
2018-06-12T10:07:38.376Z,515
2018-06-12T10:08:37.870Z,490
2018-06-12T10:09:38.109Z,480
2018-06-12T10:10:38.145Z,440
2018-06-12T10:11:38.378Z,500
2018-06-12T10:12:37.652Z,505
2018-06-12T10:13:38.419Z,440
2018-06-12T10:14:38.254Z,435
2018-06-12T10:15:38.954Z,415
2018-06-12T10:16:38.197Z,455
2018-06-12T10:17:38.149Z,485
2018-06-12T10:18:38.410Z,500
2018-06-12T10:19:37.897Z,500
2018-06-12T10:20:38.187Z,475
2018-06-12T10:21:38.015Z,385
2018-06-12T10:22:37.929Z,390
2018-06-12T10:53:41.306Z,545
2018-06-12T10:54:41.798Z,520
2018-06-12T10:55:41.564Z,515
2018-06-12T10:56:41.752Z,510
2018-06-12T10:57:41.353Z,540
2018-06-12T10:58:41.847Z,550
2018-06-12T10:59:41.859Z,540
2018-06-12T11:00:41.578Z,540
2018-06-12T11:01:41.664Z,495
2018-06-12T11:02:42.181Z,490
2018-06-12T11:03:41.769Z,490
2018-06-12T11:04:41.886Z,490
2018-06-12T11:05:41.110Z,485
2018-06-12T11:06:41.965Z,475
2018-06-12T11:07:41.642Z,460
2018-06-12T11:08:41.664Z,460
2018-06-12T11:09:41.614Z,435
2018-06-12T11:10:41.376Z,425
2018-06-12T11:11:41.646Z,420
2018-06-12T11:12:41.656Z,415
2018-06-12T11:13:42.225Z,440
2018-06-12T11:14:41.416Z,455
2018-06-12T11:15:41.662Z,440
2018-06-12T11:16:41.513Z,345
2018-06-12T11:17:41.666Z,310
2018-06-12T11:18:41.936Z,285
2018-06-12T11:19:41.715Z,260
2018-06-12T11:20:41.729Z,250
2018-06-12T11:21:41.718Z,235
2018-06-12T11:22:42.246Z,225
2018-06-12T11:23:42.775Z,230
2018-06-12T11:24:41.460Z,180
2018-06-12T11:25:42.094Z,165
2018-06-12T11:26:42.378Z,155
2018-06-12T11:27:42.266Z,130
2018-06-12T11:28:41.995Z,100
2018-06-12T11:29:41.486Z,75
2018-06-12T11:30:41.502Z,50
2018-06-12T11:31:42.016Z,45
2018-06-12T11:32:41.512Z,40
2018-06-12T11:33:42.045Z,35
2018-06-12T11:34:42.324Z,35
2018-06-12T11:35:42.078Z,35
2018-06-12T11:36:42.062Z,35
2018-06-12T11:37:41.799Z,30
2018-06-12T11:38:42.037Z,20
2018-06-12T11:39:41.824Z,20
2018-06-12T11:40:42.297Z,15
2018-06-12T11:41:42.314Z,20
2018-06-12T11:42:42.082Z,25
2018-06-12T11:43:41.833Z,30
2018-06-12T11:44:41.808Z,35
2018-06-12T11:45:42.150Z,35
2018-06-12T11:46:42.367Z,40
2018-06-12T11:47:42.131Z,35
2018-06-12T11:48:42.101Z,35
2018-06-12T11:49:42.091Z,35
2018-06-12T11:50:41.571Z,35
2018-06-12T11:51:42.121Z,30
2018-06-12T11:52:41.875Z,30
2018-06-12T11:53:41.605Z,25
2018-06-12T11:54:42.117Z,25
2018-06-12T11:55:41.857Z,25
2018-06-12T11:56:42.163Z,25
2018-06-12T11:57:41.876Z,25
2018-06-12T11:58:42.113Z,25
2018-06-12T11:59:42.119Z,25
2018-06-12T12:00:42.411Z,25
2018-06-12T12:01:42.158Z,25
2018-06-12T12:02:42.378Z,25
2018-06-12T12:03:41.600Z,20
2018-06-12T12:04:42.405Z,20
2018-06-12T12:05:42.275Z,20
2018-06-12T12:06:42.120Z,20
2018-06-12T12:07:41.623Z,20
2018-06-12T12:08:41.611Z,20
2018-06-12T12:09:42.123Z,20
2018-06-12T12:10:41.633Z,20
2018-06-12T12:11:42.155Z,20
2018-06-12T12:12:41.610Z,20
2018-06-12T12:13:42.398Z,20
2018-06-12T12:14:42.381Z,20
2018-06-12T12:15:41.971Z,15
2018-06-12T12:16:41.677Z,15
2018-06-12T12:17:42.170Z,15
2018-06-12T12:18:42.174Z,15
2018-06-12T12:19:42.116Z,15
2018-06-12T12:20:42.132Z,15
2018-06-12T12:21:41.931Z,15
2018-06-12T12:22:41.635Z,15
2018-06-12T12:23:42.505Z,20
2018-06-12T12:24:42.124Z,20
2018-06-12T12:25:41.890Z,25
2018-06-12T12:26:41.624Z,25
2018-06-12T12:27:41.919Z,20
2018-06-12T12:28:42.652Z,20
2018-06-12T12:29:42.159Z,25
2018-06-12T12:30:42.160Z,30
2018-06-12T12:31:41.884Z,30
2018-06-12T12:32:42.429Z,35
2018-06-12T12:33:41.928Z,35
2018-06-12T12:34:41.884Z,30
2018-06-12T12:35:42.162Z,35
2018-06-12T12:36:42.462Z,35
2018-06-12T12:37:41.897Z,35
2018-06-12T12:38:42.428Z,30
2018-06-12T12:39:41.918Z,30
2018-06-12T12:40:42.153Z,30
2018-06-12T12:41:42.470Z,35
2018-06-12T12:42:42.169Z,35
2018-06-12T12:43:42.621Z,40
2018-06-12T12:44:41.659Z,40
2018-06-12T12:45:41.915Z,40
2018-06-12T12:46:42.164Z,40
2018-06-12T12:47:41.666Z,40
2018-06-12T12:48:41.937Z,40
2018-06-12T12:49:42.193Z,45
2018-06-12T12:50:42.194Z,45
2018-06-12T12:51:42.210Z,50
2018-06-12T12:52:42.188Z,50
2018-06-12T12:53:42.165Z,55
2018-06-12T12:54:41.917Z,60
2018-06-12T12:55:41.932Z,60
2018-06-12T12:56:41.950Z,65
2018-06-12T12:57:42.444Z,65
2018-06-12T12:58:41.940Z,70
2018-06-12T12:59:42.447Z,70
2018-06-12T13:00:41.686Z,70
2018-06-12T13:01:42.191Z,70
2018-06-12T13:02:41.949Z,65
2018-06-12T13:03:42.176Z,60
2018-06-12T13:04:41.951Z,60
2018-06-12T13:05:41.946Z,65
2018-06-12T13:06:42.463Z,75
2018-06-12T13:07:42.207Z,85
2018-06-12T13:08:42.212Z,90
2018-06-12T13:09:41.944Z,90
2018-06-12T13:10:42.469Z,85
2018-06-12T13:11:42.197Z,85
2018-06-12T13:12:41.954Z,85
2018-06-12T13:13:41.963Z,85
2018-06-12T13:14:42.220Z,90
2018-06-12T13:15:42.473Z,90
2018-06-12T13:16:42.542Z,90
2018-06-12T13:17:42.462Z,90
2018-06-12T13:18:41.722Z,90
2018-06-12T13:19:42.260Z,90
2018-06-12T13:20:42.466Z,90
2018-06-12T13:21:41.707Z,90
2018-06-12T13:22:41.973Z,90
2018-06-12T13:23:42.029Z,90
2018-06-12T13:24:42.019Z,90
2018-06-12T13:25:42.238Z,95
2018-06-12T13:26:42.436Z,95
2018-06-12T13:27:42.481Z,100
2018-06-12T13:28:42.497Z,105
2018-06-12T13:29:42.245Z,110
2018-06-12T13:30:42.224Z,115
2018-06-12T13:31:42.518Z,120
2018-06-12T13:32:42.255Z,130
2018-06-12T13:33:42.363Z,140
2018-06-12T13:34:41.714Z,150
2018-06-12T13:35:41.798Z,165
2018-06-12T13:36:42.001Z,180
2018-06-12T13:37:42.230Z,180
2018-06-12T13:38:43.132Z,165
2018-06-12T13:39:42.006Z,155
2018-06-12T13:40:41.738Z,155
2018-06-12T13:41:42.023Z,155
2018-06-12T13:42:41.980Z,155
2018-06-12T13:43:42.243Z,145
2018-06-12T13:44:42.006Z,145
2018-06-12T13:45:42.087Z,155
2018-06-12T13:46:42.521Z,160
2018-06-12T13:47:42.519Z,155
2018-06-12T13:48:42.297Z,145
2018-06-12T13:49:42.256Z,145
2018-06-12T13:50:42.027Z,150
2018-06-12T13:51:42.271Z,155
2018-06-12T13:52:42.066Z,160
2018-06-12T13:53:42.028Z,170
2018-06-12T13:54:42.331Z,175
2018-06-12T13:55:42.030Z,185
2018-06-12T13:56:42.285Z,185
2018-06-12T13:57:42.302Z,190
2018-06-12T13:58:42.278Z,190
2018-06-12T13:59:42.275Z,190
2018-06-12T14:00:41.797Z,190
2018-06-12T14:01:42.544Z,190
2018-06-12T14:02:42.542Z,190
2018-06-12T14:03:42.035Z,185
2018-06-12T14:04:42.045Z,180
2018-06-12T14:05:42.563Z,170
2018-06-12T14:06:42.083Z,165
2018-06-12T14:07:42.581Z,160
2018-06-12T14:08:42.306Z,160
2018-06-12T14:09:42.065Z,155
2018-06-12T14:10:42.038Z,150
2018-06-12T14:11:42.663Z,145
2018-06-12T14:12:42.092Z,135
2018-06-12T14:13:42.693Z,130
2018-06-12T14:14:42.571Z,120
2018-06-12T14:15:42.320Z,115
2018-06-12T14:16:42.319Z,115
2018-06-12T14:17:42.329Z,110
2018-06-12T14:18:41.837Z,105
2018-06-12T14:19:42.010Z,100
2018-06-12T14:20:42.646Z,95
2018-06-12T14:21:42.585Z,90
2018-06-12T14:22:42.581Z,90
2018-06-12T14:23:42.381Z,85
2018-06-12T14:24:42.066Z,85
2018-06-12T14:25:42.613Z,85
2018-06-12T14:26:42.091Z,90
2018-06-12T14:27:42.344Z,90
2018-06-12T14:28:42.355Z,90
2018-06-12T14:29:42.090Z,95
2018-06-12T14:30:42.357Z,100
2018-06-12T14:31:42.620Z,100
2018-06-12T14:32:42.359Z,105
2018-06-12T14:33:42.372Z,110
2018-06-12T14:34:42.385Z,115
2018-06-12T14:35:42.634Z,125
2018-06-12T14:36:42.624Z,135
2018-06-12T14:37:42.626Z,145